Goodfield, Illinois
Current Conditions -  °F | °C
As of 11:56 PM on Sunday 19 Oct 2014 (Local Time) from KBMI Reporting Station
Broken Clouds Broken Clouds  
Wind Chill: 53°   Ceiling: 9000
Heat Index: 53°   Visibility: 10mi
Dew Point: 46°   Wind: 13mph
Humidity: 77%   Direction: 220°SW
Pressure: 29.99"   Gusts: NA
Location:  40.63°N, 89.27°W
Report Text: KBMI 200456Z AUTO 22011KT 10SM FEW070 BKN090 12/08 A2999 RMK AO2 T01160077 BKN V SCT SLP156
Loading
Personal Weather Stations






























Interactive Weather Map
Tropical Storm Tracking
New forecast layout! Learn more

10-Day Weather Forecast

Advertisements
Track Severe Weather on mobile